createdAt,value
2023-01-18T00:01:09.518Z,98922.16
2023-01-18T00:03:38.172Z,98930.03
2023-01-18T00:06:07.173Z,98929.25
2023-01-18T00:08:35.421Z,98925.75
2023-01-18T00:11:10.098Z,98929.38
2023-01-18T00:13:36.989Z,98924.06
2023-01-18T00:16:08.139Z,98930.41
2023-01-18T00:18:36.005Z,98935.81
2023-01-18T00:21:04.680Z,98938.44
2023-01-18T00:23:31.355Z,98942.22
2023-01-18T00:26:07.215Z,98939.56
2023-01-18T00:28:33.879Z,98944.13
2023-01-18T00:31:00.235Z,98946.00
2023-01-18T00:33:26.668Z,98944.28
2023-01-18T00:36:02.033Z,98959.25
2023-01-18T00:38:29.387Z,98942.78
2023-01-18T00:40:56.318Z,98945.25
2023-01-18T00:43:41.368Z,98952.50
2023-01-18T00:46:10.776Z,98960.56
2023-01-18T00:48:41.310Z,98957.13
2023-01-18T00:51:10.028Z,98956.28
2023-01-18T00:53:38.075Z,98966.03
2023-01-18T00:56:09.513Z,98960.00
2023-01-18T00:58:37.510Z,98960.91
2023-01-18T01:01:05.611Z,98960.91
2023-01-18T01:03:54.657Z,98967.06
2023-01-18T01:06:45.177Z,98973.41
2023-01-18T01:09:20.625Z,98978.88
2023-01-18T01:12:07.088Z,98978.88
2023-01-18T01:14:59.037Z,98984.38
2023-01-18T01:17:44.237Z,98982.63
2023-01-18T01:20:29.573Z,98970.53
2023-01-18T01:23:15.057Z,98981.97
2023-01-18T01:26:00.338Z,98983.03
2023-01-18T01:28:26.730Z,98986.41
2023-01-18T01:30:58.763Z,98986.25
2023-01-18T01:33:25.197Z,98990.00
2023-01-18T01:35:58.652Z,98990.88
2023-01-18T01:38:25.217Z,98996.16
2023-01-18T01:41:05.034Z,98993.50
2023-01-18T01:43:42.403Z,99000.78
2023-01-18T01:46:33.714Z,98999.94
2023-01-18T01:49:10.769Z,98996.66
2023-01-18T01:51:42.808Z,99009.72
2023-01-18T01:54:15.292Z,99007.03
2023-01-18T01:56:44.838Z,99010.66
2023-01-18T01:59:11.457Z,99015.13
2023-01-18T02:01:39.714Z,99018.69
2023-01-18T02:04:06.174Z,99015.38
2023-01-18T02:06:36.145Z,99018.88
2023-01-18T02:09:06.050Z,99015.53
2023-01-18T02:11:32.425Z,99021.72
2023-01-18T02:14:03.920Z,99012.03
2023-01-18T02:16:48.794Z,99027.84
2023-01-18T02:19:59.376Z,99025.28
2023-01-18T02:22:53.644Z,99024.53
2023-01-18T02:25:46.531Z,99015.91
2023-01-18T02:28:19.418Z,99011.47
2023-01-18T02:31:07.442Z,99014.13
2023-01-18T02:33:47.167Z,99016.09
2023-01-18T02:36:32.063Z,99029.31
2023-01-18T02:39:06.425Z,99020.44
2023-01-18T02:42:00.285Z,99019.56
2023-01-18T02:44:53.687Z,99028.38
2023-01-18T02:47:21.122Z,99022.22
2023-01-18T02:49:47.465Z,99033.75
2023-01-18T02:52:42.215Z,99037.44
2023-01-18T02:55:22.224Z,99033.75
2023-01-18T02:57:48.844Z,99034.69
2023-01-18T03:00:19.026Z,99033.84
2023-01-18T03:02:48.816Z,99021.44
2023-01-18T03:05:15.402Z,99033.75
2023-01-18T03:07:55.818Z,99036.41
2023-01-18T03:10:29.245Z,99042.63
2023-01-18T03:13:03.777Z,99048.75
2023-01-18T03:15:50.340Z,99046.22
2023-01-18T03:18:26.926Z,99041.09
2023-01-18T03:20:56.439Z,99047.25
2023-01-18T03:23:38.352Z,99048.25
2023-01-18T03:26:07.436Z,99050.16
2023-01-18T03:29:03.000Z,99050.16
2023-01-18T03:32:08.245Z,99060.06
2023-01-18T03:34:56.138Z,99063.63
2023-01-18T03:37:39.666Z,99059.38
2023-01-18T03:40:19.559Z,99061.16
2023-01-18T03:43:19.329Z,99062.94
2023-01-18T03:45:48.263Z,99068.22
2023-01-18T03:48:15.097Z,99062.94
2023-01-18T03:50:52.742Z,99069.97
2023-01-18T03:53:50.715Z,99074.38
2023-01-18T03:56:43.924Z,99066.63
2023-01-18T03:59:10.454Z,99071.84
2023-01-18T04:01:37.612Z,99074.47
2023-01-18T04:04:04.102Z,99077.97
2023-01-18T04:06:32.300Z,99077.13
2023-01-18T04:08:58.712Z,99079.88
2023-01-18T04:11:25.094Z,99078.06
2023-01-18T04:13:53.132Z,99087.88
2023-01-18T04:16:20.853Z,99098.47
2023-01-18T04:18:47.367Z,99095.81
2023-01-18T04:21:13.770Z,99096.75
2023-01-18T04:23:40.188Z,99102.06
2023-01-18T04:26:06.661Z,99098.47
2023-01-18T04:28:34.495Z,99096.75
2023-01-18T04:31:01.037Z,99103.84
2023-01-18T04:33:27.762Z,99098.63
2023-01-18T04:35:54.375Z,99102.13
2023-01-18T04:38:20.832Z,99103.91
2023-01-18T04:40:47.241Z,99099.47
2023-01-18T04:43:13.602Z,99106.41
2023-01-18T04:45:39.937Z,99106.50
2023-01-18T04:48:06.624Z,99108.25
2023-01-18T04:50:33.077Z,99108.25
2023-01-18T04:52:59.959Z,99112.72
2023-01-18T04:55:26.657Z,99115.28
2023-01-18T04:57:57.193Z,99113.56
2023-01-18T05:00:24.261Z,99120.75
2023-01-18T05:02:51.016Z,99118.00
2023-01-18T05:05:17.741Z,99128.53
2023-01-18T05:07:44.168Z,99139.09
2023-01-18T05:10:10.936Z,99122.53
2023-01-18T05:12:37.678Z,99132.19
2023-01-18T05:15:05.867Z,99139.25
2023-01-18T05:17:34.534Z,99140.13
2023-01-18T05:20:01.821Z,99137.56
2023-01-18T05:22:29.080Z,99147.09
2023-01-18T05:24:55.707Z,99155.03
2023-01-18T05:27:22.208Z,99152.41
2023-01-18T05:29:48.634Z,99155.16
2023-01-18T05:32:15.027Z,99161.19
2023-01-18T05:34:42.293Z,99169.13
2023-01-18T05:37:08.700Z,99158.53
2023-01-18T05:39:35.102Z,99169.13
2023-01-18T05:42:01.539Z,99173.56
2023-01-18T05:44:28.149Z,99171.78
2023-01-18T05:46:54.559Z,99175.38
2023-01-18T05:49:20.904Z,99178.88
2023-01-18T05:51:47.281Z,99186.75
2023-01-18T05:54:13.828Z,99183.16
2023-01-18T05:56:40.369Z,99189.28
2023-01-18T05:59:06.821Z,99198.06
2023-01-18T06:01:33.447Z,99192.03
2023-01-18T06:04:00.533Z,99197.31
2023-01-18T06:06:27.029Z,99199.03
2023-01-18T06:08:53.455Z,99198.16
2023-01-18T06:11:19.860Z,99202.63
2023-01-18T06:13:46.261Z,99200.72
2023-01-18T06:16:13.211Z,99203.31
2023-01-18T06:18:39.790Z,99210.31
2023-01-18T06:21:07.691Z,99209.44
2023-01-18T06:23:35.206Z,99204.16
2023-01-18T06:26:01.653Z,99217.38
2023-01-18T06:28:30.360Z,99216.53
2023-01-18T06:30:57.214Z,99217.47
2023-01-18T06:33:24.255Z,99230.53
2023-01-18T06:35:51.059Z,99236.44
2023-01-18T06:38:17.731Z,99231.00
2023-01-18T06:40:44.201Z,99228.19
2023-01-18T06:43:13.900Z,99243.22
2023-01-18T06:45:41.174Z,99247.56
2023-01-18T06:48:07.644Z,99258.00
2023-01-18T06:50:37.040Z,99259.63
2023-01-18T06:53:03.451Z,99258.69
2023-01-18T06:55:29.847Z,99262.97
2023-01-18T06:57:57.786Z,99264.66
2023-01-18T07:00:24.755Z,99266.38
2023-01-18T07:02:52.830Z,99260.00
2023-01-18T07:05:19.317Z,99272.28
2023-01-18T07:07:46.161Z,99275.78
2023-01-18T07:10:15.377Z,99280.22
2023-01-18T07:12:43.233Z,99292.69
2023-01-18T07:15:21.154Z,99289.72
2023-01-18T07:17:50.223Z,99290.50
2023-01-18T07:20:17.073Z,99284.13
2023-01-18T07:22:43.539Z,99291.06
2023-01-18T07:25:13.165Z,99302.41
2023-01-18T07:27:43.083Z,99310.31
2023-01-18T07:30:12.336Z,99312.00
2023-01-18T07:32:39.382Z,99302.19
2023-01-18T07:35:06.145Z,99306.63
2023-01-18T07:37:34.381Z,99311.69
2023-01-18T07:40:00.742Z,99314.31
2023-01-18T07:42:27.341Z,99318.44
2023-01-18T07:44:53.789Z,99330.75
2023-01-18T07:47:20.152Z,99334.19
2023-01-18T07:49:46.788Z,99329.72
2023-01-18T07:52:13.210Z,99339.13
2023-01-18T07:54:39.596Z,99336.31
2023-01-18T07:57:06.037Z,99332.75
2023-01-18T07:59:33.401Z,99344.09
2023-01-18T08:01:59.748Z,99337.94
2023-01-18T08:04:26.205Z,99344.78
2023-01-18T08:06:52.601Z,99348.38
2023-01-18T08:09:18.915Z,99349.94
2023-01-18T08:11:45.263Z,99353.53
2023-01-18T08:14:12.248Z,99363.97
2023-01-18T08:16:38.594Z,99365.66
2023-01-18T08:19:05.000Z,99371.66
2023-01-18T08:21:33.513Z,99373.28
2023-01-18T08:23:59.869Z,99378.50
2023-01-18T08:26:26.294Z,99377.56
2023-01-18T08:28:52.729Z,99374.75
2023-01-18T08:31:20.979Z,99386.13
2023-01-18T08:33:48.836Z,99380.75
2023-01-18T08:36:25.642Z,99381.50
2023-01-18T08:38:55.287Z,99380.59
2023-01-18T08:41:22.596Z,99388.53
2023-01-18T08:43:50.860Z,99391.94
2023-01-18T08:46:17.856Z,99396.16
2023-01-18T08:48:44.318Z,99399.56
2023-01-18T08:51:11.334Z,99408.31
2023-01-18T08:53:37.689Z,99404.63
2023-01-18T08:56:06.556Z,99402.69
2023-01-18T08:58:33.284Z,99421.25
2023-01-18T09:00:59.813Z,99417.63
2023-01-18T09:03:26.221Z,99430.72
2023-01-18T09:05:52.613Z,99427.13
2023-01-18T09:08:19.096Z,99426.13
2023-01-18T09:10:45.570Z,99427.81
2023-01-18T09:13:12.042Z,99430.41
2023-01-18T09:15:38.813Z,99429.34
2023-01-18T09:18:06.410Z,99429.28
2023-01-18T09:20:35.983Z,99427.38
2023-01-18T09:23:07.594Z,99434.41
2023-01-18T09:25:36.332Z,99451.97
2023-01-18T09:28:04.386Z,99458.88
2023-01-18T09:30:32.992Z,99457.00
2023-01-18T09:32:59.946Z,99450.75
2023-01-18T09:35:26.762Z,99467.38
2023-01-18T09:37:54.399Z,99464.63
2023-01-18T09:40:24.793Z,99466.34
2023-01-18T09:42:52.646Z,99475.94
2023-01-18T09:45:32.846Z,99483.78
2023-01-18T09:48:12.496Z,99476.78
2023-01-18T09:50:42.751Z,99481.09
2023-01-18T09:53:18.077Z,99488.94
2023-01-18T09:56:02.382Z,99490.69
2023-01-18T09:58:34.871Z,99491.38
2023-01-18T10:01:06.777Z,99491.25
2023-01-18T10:03:55.049Z,99493.75
2023-01-18T10:06:29.158Z,99488.44
2023-01-18T10:09:06.584Z,99490.94
2023-01-18T10:11:47.211Z,99491.78
2023-01-18T10:14:22.454Z,99488.28
2023-01-18T10:16:58.069Z,99484.94
2023-01-18T10:19:28.417Z,99501.09
2023-01-18T10:22:36.994Z,99499.38
2023-01-18T10:25:25.477Z,99506.66
2023-01-18T10:28:29.000Z,99505.88
2023-01-18T10:31:11.739Z,99508.47
2023-01-18T10:33:42.045Z,99512.81
2023-01-18T10:36:18.955Z,99519.88
2023-01-18T10:38:47.362Z,99511.69
2023-01-18T10:41:25.677Z,99516.84
2023-01-18T10:43:52.132Z,99508.81
2023-01-18T10:46:21.271Z,99512.94
2023-01-18T10:48:51.013Z,99512.94
2023-01-18T10:51:35.305Z,99518.06
2023-01-18T10:54:25.320Z,99528.59
2023-01-18T10:57:02.343Z,99531.00
2023-01-18T10:59:37.440Z,99523.88
2023-01-18T11:02:17.721Z,99531.59
2023-01-18T11:04:45.337Z,99535.13
2023-01-18T11:07:12.685Z,99526.88
2023-01-18T11:09:59.229Z,99526.88
2023-01-18T11:12:52.069Z,99537.34
2023-01-18T11:15:19.012Z,99525.78
2023-01-18T11:17:55.992Z,99529.06
2023-01-18T11:20:30.254Z,99531.66
2023-01-18T11:22:59.528Z,99528.88
2023-01-18T11:25:45.492Z,99528.81
2023-01-18T11:28:21.649Z,99534.03
2023-01-18T11:31:06.382Z,99530.41
2023-01-18T11:33:33.338Z,99528.56
2023-01-18T11:36:01.908Z,99533.59
2023-01-18T11:38:32.038Z,99522.03
2023-01-18T11:41:25.591Z,99534.28
2023-01-18T11:44:01.017Z,99538.66
2023-01-18T11:46:55.476Z,99535.06
2023-01-18T11:49:31.498Z,99531.28
2023-01-18T11:52:02.105Z,99533.94
2023-01-18T11:54:41.803Z,99529.41
2023-01-18T11:57:12.245Z,99530.25
2023-01-18T11:59:45.724Z,99530.91
2023-01-18T12:02:56.080Z,99529.91
2023-01-18T12:05:45.997Z,99534.38
2023-01-18T12:08:19.788Z,99535.88
2023-01-18T12:11:08.285Z,99544.59
2023-01-18T12:14:00.962Z,99531.44
2023-01-18T12:16:44.565Z,99540.84
2023-01-18T12:19:40.859Z,99543.50
2023-01-18T12:22:35.971Z,99545.13
2023-01-18T12:25:25.686Z,99544.25
2023-01-18T12:28:09.562Z,99545.81
2023-01-18T12:31:12.453Z,99549.22
2023-01-18T12:34:00.003Z,99547.34
2023-01-18T12:37:17.981Z,99548.97
2023-01-18T12:40:03.168Z,99547.19
2023-01-18T12:42:57.633Z,99547.00
2023-01-18T12:45:41.040Z,99536.19
2023-01-18T12:48:17.124Z,99532.47
2023-01-18T12:50:48.799Z,99536.75
2023-01-18T12:53:23.083Z,99540.94
2023-01-18T12:55:53.701Z,99538.09
2023-01-18T12:58:24.391Z,99539.84
2023-01-18T13:00:59.087Z,99542.22
2023-01-18T13:03:37.630Z,99537.75
2023-01-18T13:06:04.283Z,99547.44
2023-01-18T13:08:49.293Z,99541.06
2023-01-18T13:11:32.837Z,99547.25
2023-01-18T13:14:07.184Z,99549.72
2023-01-18T13:16:37.690Z,99550.50
2023-01-18T13:19:09.086Z,99546.88
2023-01-18T13:21:48.096Z,99560.00
2023-01-18T13:24:36.382Z,99565.22
2023-01-18T13:27:11.769Z,99564.38
2023-01-18T13:29:40.084Z,99563.25
2023-01-18T13:32:39.132Z,99568.66
2023-01-18T13:35:20.469Z,99567.63
2023-01-18T13:37:51.178Z,99562.31
2023-01-18T13:40:34.972Z,99569.50
2023-01-18T13:43:01.676Z,99571.81
2023-01-18T13:45:30.024Z,99583.03
2023-01-18T13:48:05.477Z,99570.78
2023-01-18T13:50:32.010Z,99588.19
2023-01-18T13:53:13.924Z,99578.38
2023-01-18T13:55:48.721Z,99589.88
2023-01-18T13:58:27.232Z,99579.25
2023-01-18T14:00:55.691Z,99591.50
2023-01-18T14:03:26.002Z,99584.28
2023-01-18T14:05:54.724Z,99599.31
2023-01-18T14:08:29.069Z,99591.22
2023-01-18T14:11:07.573Z,99598.25
2023-01-18T14:13:46.040Z,99605.28
2023-01-18T14:16:25.460Z,99608.69
2023-01-18T14:18:58.376Z,99611.19
2023-01-18T14:22:05.848Z,99608.53
2023-01-18T14:25:07.845Z,99606.81
2023-01-18T14:27:50.323Z,99619.09
2023-01-18T14:30:30.568Z,99626.13
2023-01-18T14:33:26.566Z,99634.78
2023-01-18T14:35:55.827Z,99634.78
2023-01-18T14:38:22.324Z,99634.78
2023-01-18T14:40:54.890Z,99637.28
2023-01-18T14:43:37.775Z,99636.31
2023-01-18T14:46:08.964Z,99639.94
2023-01-18T14:48:46.421Z,99643.38
2023-01-18T14:51:18.194Z,99645.09
2023-01-18T14:53:48.078Z,99641.47
2023-01-18T14:56:14.479Z,99643.16
2023-01-18T14:58:43.478Z,99640.50
2023-01-18T15:01:33.219Z,99643.16
2023-01-18T15:04:02.032Z,99636.91
2023-01-18T15:06:40.136Z,99639.47
2023-01-18T15:09:09.183Z,99643.09
2023-01-18T15:11:37.732Z,99641.38
2023-01-18T15:14:09.470Z,99649.25
2023-01-18T15:16:36.144Z,99648.50
2023-01-18T15:19:03.089Z,99648.50
2023-01-18T15:21:34.909Z,99651.94
2023-01-18T15:24:13.455Z,99650.22
2023-01-18T15:26:44.464Z,99652.97
2023-01-18T15:29:30.580Z,99659.13
2023-01-18T15:32:02.186Z,99663.59
2023-01-18T15:34:31.551Z,99660.88
2023-01-18T15:37:00.001Z,99664.44
2023-01-18T15:39:26.586Z,99676.06
2023-01-18T15:41:56.803Z,99675.09
2023-01-18T15:44:35.139Z,99672.44
2023-01-18T15:47:02.919Z,99670.00
2023-01-18T15:49:29.539Z,99677.97
2023-01-18T15:51:59.140Z,99680.72
2023-01-18T15:54:29.671Z,99666.44
2023-01-18T15:57:09.361Z,99678.97
2023-01-18T15:59:35.749Z,99670.31
2023-01-18T16:02:17.899Z,99665.19
2023-01-18T16:04:45.339Z,99670.50
2023-01-18T16:07:30.185Z,99665.44
2023-01-18T16:10:28.786Z,99672.56
2023-01-18T16:12:56.837Z,99675.31
2023-01-18T16:15:29.038Z,99692.13
2023-01-18T16:18:03.226Z,99700.00
2023-01-18T16:20:31.768Z,99700.19
2023-01-18T16:23:19.106Z,99701.44
2023-01-18T16:26:02.123Z,99704.09
2023-01-18T16:28:28.695Z,99705.00
2023-01-18T16:30:55.506Z,99695.44
2023-01-18T16:33:21.999Z,99709.66
2023-01-18T16:35:49.344Z,99709.81
2023-01-18T16:38:20.038Z,99710.88
2023-01-18T16:40:48.880Z,99719.63
2023-01-18T16:43:24.301Z,99714.47
2023-01-18T16:45:54.421Z,99718.94
2023-01-18T16:48:26.107Z,99719.88
2023-01-18T16:50:53.280Z,99720.75
2023-01-18T16:53:19.683Z,99732.34
2023-01-18T16:55:48.125Z,99736.69
2023-01-18T16:58:21.463Z,99735.00
2023-01-18T17:01:06.691Z,99730.81
2023-01-18T17:03:34.381Z,99738.84
2023-01-18T17:06:00.896Z,99729.91
2023-01-18T17:08:27.405Z,99737.03
2023-01-18T17:10:56.413Z,99744.97
2023-01-18T17:13:23.682Z,99744.16
2023-01-18T17:15:52.838Z,99753.00
2023-01-18T17:18:23.890Z,99753.09
2023-01-18T17:20:50.505Z,99761.16
2023-01-18T17:23:17.456Z,99774.44
2023-01-18T17:25:44.506Z,99763.91
2023-01-18T17:28:13.696Z,99763.06
2023-01-18T17:30:41.987Z,99771.03
2023-01-18T17:33:15.532Z,99768.38
2023-01-18T17:35:42.069Z,99773.88
2023-01-18T17:38:17.263Z,99775.56
2023-01-18T17:40:49.319Z,99773.88
2023-01-18T17:43:28.588Z,99777.28
2023-01-18T17:46:02.346Z,99778.34
2023-01-18T17:48:29.665Z,99783.56
2023-01-18T17:50:56.081Z,99780.09
2023-01-18T17:53:22.657Z,99782.75
2023-01-18T17:55:49.237Z,99783.72
2023-01-18T17:58:15.659Z,99779.25
2023-01-18T18:00:42.118Z,99784.66
2023-01-18T18:03:09.903Z,99794.34
2023-01-18T18:05:36.570Z,99787.41
2023-01-18T18:08:02.914Z,99791.69
2023-01-18T18:10:29.432Z,99790.94
2023-01-18T18:12:55.885Z,99790.00
2023-01-18T18:15:23.410Z,99793.59
2023-01-18T18:17:49.882Z,99797.97
2023-01-18T18:20:16.771Z,99783.81
2023-01-18T18:22:43.239Z,99795.38
2023-01-18T18:25:09.881Z,99797.19
2023-01-18T18:27:45.195Z,99797.19
2023-01-18T18:30:12.897Z,99815.03
2023-01-18T18:32:39.344Z,99806.09
2023-01-18T18:35:14.773Z,99817.53
2023-01-18T18:37:50.881Z,99822.06
2023-01-18T18:40:17.673Z,99815.19
2023-01-18T18:42:52.733Z,99830.13
2023-01-18T18:45:27.275Z,99831.91
2023-01-18T18:47:53.741Z,99839.88
2023-01-18T18:50:20.264Z,99835.53
2023-01-18T18:52:46.696Z,99844.34
2023-01-18T18:55:13.119Z,99837.22
2023-01-18T18:57:39.509Z,99849.59
2023-01-18T19:00:07.479Z,99847.09
2023-01-18T19:02:34.731Z,99856.78
2023-01-18T19:05:01.281Z,99856.00
2023-01-18T19:07:28.411Z,99856.00
2023-01-18T19:09:54.797Z,99867.53
2023-01-18T19:12:21.166Z,99851.81
2023-01-18T19:14:47.738Z,99867.59
2023-01-18T19:17:25.195Z,99865.94
2023-01-18T19:19:56.174Z,99869.50
2023-01-18T19:22:22.518Z,99872.16
2023-01-18T19:24:49.290Z,99867.69
2023-01-18T19:27:16.574Z,99874.81
2023-01-18T19:29:43.325Z,99874.97
2023-01-18T19:32:09.947Z,99875.88
2023-01-18T19:34:38.282Z,99895.28
2023-01-18T19:37:04.812Z,99887.38
2023-01-18T19:39:34.450Z,99892.69
2023-01-18T19:42:01.724Z,99890.13
2023-01-18T19:44:28.238Z,99903.59
2023-01-18T19:46:56.545Z,99901.72
2023-01-18T19:49:25.440Z,99902.47
2023-01-18T19:51:53.082Z,99892.88
2023-01-18T19:54:19.642Z,99904.38
2023-01-18T19:56:46.425Z,99912.25
2023-01-18T19:59:14.441Z,99920.31
2023-01-18T20:01:40.903Z,99927.34
2023-01-18T20:04:07.573Z,99910.69
2023-01-18T20:06:34.879Z,99928.28
2023-01-18T20:09:01.762Z,99921.25
2023-01-18T20:11:28.326Z,99928.28
2023-01-18T20:13:55.431Z,99934.53
2023-01-18T20:16:22.014Z,99930.97
2023-01-18T20:18:48.832Z,99931.81
2023-01-18T20:21:17.292Z,99933.53
2023-01-18T20:23:44.780Z,99932.66
2023-01-18T20:26:13.168Z,99936.28
2023-01-18T20:28:41.163Z,99943.47
2023-01-18T20:31:09.152Z,99939.84
2023-01-18T20:33:38.010Z,99934.53
2023-01-18T20:36:06.430Z,99936.34
2023-01-18T20:38:33.919Z,99934.69
2023-01-18T20:41:01.154Z,99932.81
2023-01-18T20:43:27.591Z,99931.19
2023-01-18T20:46:08.596Z,99939.16
2023-01-18T20:48:36.151Z,99924.25
2023-01-18T20:51:04.387Z,99932.97
2023-01-18T20:53:32.446Z,99936.59
2023-01-18T20:56:03.343Z,99944.63
2023-01-18T20:58:29.892Z,99951.84
2023-01-18T21:00:56.313Z,99948.31
2023-01-18T21:03:22.849Z,99953.66
2023-01-18T21:05:49.229Z,99944.88
2023-01-18T21:08:17.301Z,99952.84
2023-01-18T21:10:43.646Z,99944.25
2023-01-18T21:13:11.169Z,99953.00
2023-01-18T21:15:39.029Z,99956.63
2023-01-18T21:18:06.181Z,99958.47
2023-01-18T21:20:33.038Z,99955.81
2023-01-18T21:23:00.595Z,99967.41
2023-01-18T21:25:29.367Z,99964.81
2023-01-18T21:27:57.910Z,99966.75
2023-01-18T21:30:25.039Z,99974.56
2023-01-18T21:32:51.444Z,99973.72
2023-01-18T21:35:18.718Z,99975.69
2023-01-18T21:37:45.086Z,99981.78
2023-01-18T21:40:11.941Z,99975.78
2023-01-18T21:42:56.993Z,99966.16
2023-01-18T21:45:41.804Z,99970.50
2023-01-18T21:48:08.646Z,99980.34
2023-01-18T21:50:57.736Z,99977.69
2023-01-18T21:53:42.523Z,99977.94
2023-01-18T21:56:09.177Z,99973.63
2023-01-18T21:58:54.080Z,99971.91
2023-01-18T22:01:37.527Z,99986.91
2023-01-18T22:04:28.237Z,99986.16
2023-01-18T22:06:57.641Z,99989.88
2023-01-18T22:09:24.050Z,99997.78
2023-01-18T22:11:50.488Z,99991.63
2023-01-18T22:14:16.880Z,99992.47
2023-01-18T22:16:43.355Z,100005.81
2023-01-18T22:19:13.188Z,100008.41
2023-01-18T22:21:39.773Z,100013.00
2023-01-18T22:24:06.589Z,100008.66
2023-01-18T22:26:35.445Z,100011.31
2023-01-18T22:29:02.721Z,100008.78
2023-01-18T22:31:29.107Z,100012.22
2023-01-18T22:33:56.109Z,100007.91
2023-01-18T22:36:22.913Z,100014.88
2023-01-18T22:38:49.472Z,100014.03
2023-01-18T22:41:18.571Z,100015.88
2023-01-18T22:43:46.142Z,100013.41
2023-01-18T22:46:14.655Z,100021.28
2023-01-18T22:48:41.734Z,100023.94
2023-01-18T22:51:11.030Z,100025.66
2023-01-18T22:53:37.910Z,100025.66
2023-01-18T22:56:11.224Z,100032.84
2023-01-18T22:58:37.939Z,100025.78
2023-01-18T23:01:15.910Z,100024.94
2023-01-18T23:03:43.857Z,100041.72
2023-01-18T23:06:10.336Z,100025.09
2023-01-18T23:08:44.598Z,100037.47
2023-01-18T23:11:21.754Z,100033.00
2023-01-18T23:14:10.495Z,100038.31
2023-01-18T23:16:56.112Z,100028.69
2023-01-18T23:19:28.207Z,100034.84
2023-01-18T23:21:56.260Z,100029.69
2023-01-18T23:24:23.689Z,100033.19
2023-01-18T23:26:50.709Z,100034.22
2023-01-18T23:29:17.795Z,100040.31
2023-01-18T23:31:44.220Z,100037.03
2023-01-18T23:34:10.687Z,100035.16
2023-01-18T23:36:37.051Z,100036.88
2023-01-18T23:39:22.501Z,100025.41
2023-01-18T23:42:07.304Z,100030.78
2023-01-18T23:44:52.792Z,100035.28
2023-01-18T23:47:37.680Z,100034.59
2023-01-18T23:50:23.070Z,100039.97
2023-01-18T23:53:07.969Z,100057.69
2023-01-18T23:55:34.427Z,100054.22
2023-01-18T23:58:01.247Z,100055.94
